KLWS

Lewiston-Nez Perce County Airport

Lewiston, Idaho, USA
METAR KLWS 231156Z AUTO 12003KT 10SM CLR 07/02 A2993 RMK AO2 SLP137 T00670017 10106 20061 56006
Observed Flight Rules
Oct-23 @ 11:56 UTC (51 minutes ago) Visual Flight Rules
Wind Visibility Clouds
120° at 3 knots 10 miles
  • Clear skies
Temperatures Readings
Current 7°C / 45°F
Dewpoint 2°C / 36°F
Humidity 71%
Altimeter 29.93" Hg
Pressure 1013.7 hPa
Elevation 438
METAR KLWS 231156Z AUTO 12003KT 10SM CLR 07/02 A2993 RMK AO2 SLP137 T00670017 10106 20061 56006
Observed Flight Rules
Oct-23 @ 11:56 UTC
(51 minutes ago)
VFR
Wind Visibility
120° at 3 knots 10 miles
Clouds
  • Clear skies
Temperature Dewpoint
7°C / 45°F 2°C / 36°F
Humidity Altimeter Pressure
71% 29.93" Hg 1013.7 hPa